Time;durP1;ratioP1;P1;durP2;ratioP2;P2;SDS_P1;SDS_P2;PMS_P1;PMS_P2;Temp;Humidity;BMP_temperature;BMP_pressure;BME280_temperature;BME280_humidity;BME280_pressure;Samples;Min_cycle;Max_cycle;Signal;HPM_P1;HPM_P2
2023/03/11 00:01:48;;;;;;;1.90;0.83;;;;;;;17.31;53.07;99476.03;5111281;28;20196;-62
2023/03/11 00:04:13;;;;;;;2.10;1.03;;;;;;;17.29;53.27;99461.34;5111860;28;20431;-62
2023/03/11 00:06:38;;;;;;;2.20;0.80;;;;;;;17.29;53.15;99478.47;5096730;28;20213;-62
2023/03/11 00:09:04;;;;;;;1.90;0.70;;;;;;;17.31;52.97;99475.22;5112440;28;20553;-62
2023/03/11 00:11:29;;;;;;;1.40;0.60;;;;;;;17.32;53.80;99465.44;5113838;28;20697;-62
2023/03/11 00:13:55;;;;;;;2.00;0.83;;;;;;;17.30;53.08;99457.28;5112496;28;20581;-62
2023/03/11 00:16:20;;;;;;;1.40;0.90;;;;;;;17.31;53.44;99453.19;5111977;28;20188;-62
2023/03/11 00:18:48;;;;;;;1.80;0.73;;;;;;;17.29;53.48;99446.25;5112760;28;20162;-62
2023/03/11 00:21:15;;;;;;;2.53;1.10;;;;;;;17.29;52.80;99449.94;5093896;28;20181;-62
2023/03/11 00:23:40;;;;;;;2.50;1.10;;;;;;;17.30;53.01;99454.41;5112275;28;21014;-62
2023/03/11 00:26:06;;;;;;;2.53;0.90;;;;;;;17.29;53.89;99467.06;5112413;28;20542;-62
2023/03/11 00:28:31;;;;;;;2.00;0.83;;;;;;;17.34;53.20;99448.75;5112356;28;20197;-62
2023/03/11 00:30:57;;;;;;;1.73;0.80;;;;;;;17.34;52.86;99463.00;5101392;28;20579;-62
2023/03/11 00:33:22;;;;;;;1.37;0.60;;;;;;;17.35;53.06;99465.47;5112121;28;20173;-62
2023/03/11 00:35:48;;;;;;;2.23;0.60;;;;;;;17.33;52.92;99469.94;5112486;28;20187;-62
2023/03/11 00:38:14;;;;;;;2.00;0.90;;;;;;;17.33;52.92;99462.22;5112159;28;20182;-62
2023/03/11 00:40:40;;;;;;;1.80;0.77;;;;;;;17.33;52.89;99472.78;5111920;28;20451;-62
2023/03/11 00:43:05;;;;;;;1.30;0.70;;;;;;;17.31;52.78;99475.22;5112484;28;20423;-62
2023/03/11 00:45:31;;;;;;;1.77;0.67;;;;;;;17.32;52.96;99471.97;5111608;27;20204;-62
2023/03/11 00:47:56;;;;;;;1.47;0.60;;;;;;;17.31;52.87;99464.63;5095175;28;20973;-62
2023/03/11 00:50:24;;;;;;;1.63;0.60;;;;;;;17.29;53.08;99452.78;5111621;28;20688;-62
2023/03/11 00:52:49;;;;;;;2.27;0.70;;;;;;;17.31;52.89;99461.75;5112283;28;20208;-62
2023/03/11 00:55:20;;;;;;;1.70;0.70;;;;;;;17.31;53.05;99470.31;5111053;28;20404;-62
2023/03/11 00:57:46;;;;;;;1.30;0.60;;;;;;;17.32;53.01;99482.56;5099372;28;20174;-62
2023/03/11 01:00:13;;;;;;;1.70;0.90;;;;;;;17.31;52.99;99490.28;5112724;28;20483;-62
2023/03/11 01:02:39;;;;;;;3.17;1.07;;;;;;;17.32;52.73;99479.72;5109079;28;20285;-62
2023/03/11 01:05:05;;;;;;;1.80;0.60;;;;;;;17.32;52.78;99471.16;5111152;28;20448;-62
2023/03/11 01:07:32;;;;;;;2.03;0.70;;;;;;;17.33;52.75;99484.19;5111207;28;20910;-62
2023/03/11 01:09:57;;;;;;;1.57;0.80;;;;;;;17.32;52.79;99482.56;5112278;28;20221;-62
2023/03/11 01:12:23;;;;;;;1.67;0.80;;;;;;;17.32;52.57;99494.81;5111716;28;20496;-62
2023/03/11 01:14:48;;;;;;;1.60;0.70;;;;;;;17.33;52.45;99516.41;5112326;28;20198;-62
2023/03/11 01:17:13;;;;;;;1.73;0.80;;;;;;;17.28;53.01;99525.31;5111985;28;20173;-62
2023/03/11 01:19:39;;;;;;;2.17;0.70;;;;;;;17.27;53.39;99517.97;5112588;28;20169;-62
2023/03/11 01:22:04;;;;;;;1.80;0.70;;;;;;;17.28;52.84;99515.94;5111748;28;20181;-62
2023/03/11 01:24:30;;;;;;;2.30;0.90;;;;;;;17.30;52.76;99514.31;5112211;28;20197;-62
2023/03/11 01:26:55;;;;;;;2.60;0.80;;;;;;;17.28;52.93;99511.06;5104158;28;20248;-62
2023/03/11 01:29:21;;;;;;;3.77;1.30;;;;;;;17.27;52.41;99515.13;5113452;27;20185;-62
2023/03/11 01:31:46;;;;;;;1.40;0.53;;;;;;;17.26;52.68;99499.19;5112127;28;20231;-62
2023/03/11 01:34:11;;;;;;;2.00;1.00;;;;;;;17.27;52.82;99494.31;5111648;28;20205;-62
2023/03/11 01:36:37;;;;;;;3.40;0.90;;;;;;;17.23;52.88;99497.16;5112293;28;20285;-62
2023/03/11 01:39:03;;;;;;;1.30;0.60;;;;;;;17.29;52.57;99495.56;5111469;28;20765;-62
2023/03/11 01:41:28;;;;;;;1.70;1.00;;;;;;;17.22;53.18;99512.63;5111689;28;20178;-62
2023/03/11 01:43:54;;;;;;;1.40;0.73;;;;;;;17.34;52.31;99497.25;5110253;28;20174;-62
2023/03/11 01:46:21;;;;;;;1.50;0.60;;;;;;;17.35;52.48;99502.56;5110807;28;20205;-62
2023/03/11 01:48:50;;;;;;;1.63;0.90;;;;;;;17.33;52.76;99507.84;5110734;28;20192;-62
2023/03/11 01:51:18;;;;;;;1.70;0.80;;;;;;;17.32;52.67;99517.63;5111721;28;20435;-62
2023/03/11 01:53:44;;;;;;;2.17;0.70;;;;;;;17.29;53.02;99509.00;5105537;28;20513;-62
2023/03/11 01:56:09;;;;;;;1.60;0.70;;;;;;;17.25;53.19;99506.13;5104498;28;20420;-62
2023/03/11 01:58:36;;;;;;;3.10;0.90;;;;;;;17.27;53.11;99502.88;5110009;28;20628;-62
2023/03/11 02:01:02;;;;;;;1.77;0.73;;;;;;;17.25;52.89;99514.69;5113605;27;20212;-61
2023/03/11 02:03:36;;;;;;;1.50;0.60;;;;;;;17.27;53.20;99514.28;5109819;28;20506;-60
2023/03/11 02:06:04;;;;;;;1.83;0.83;;;;;;;17.28;52.88;99515.94;5110673;28;20941;-60
2023/03/11 02:08:32;;;;;;;1.80;0.60;;;;;;;17.26;52.77;99507.75;5110143;28;20904;-60
2023/03/11 02:10:58;;;;;;;1.70;0.80;;;;;;;17.26;52.53;99507.75;5110261;28;20475;-60
2023/03/11 02:13:23;;;;;;;1.50;0.77;;;;;;;17.27;52.55;99512.28;5111273;28;20423;-60
2023/03/11 02:15:49;;;;;;;2.73;0.80;;;;;;;17.28;52.96;99510.22;5091714;28;20205;-60
2023/03/11 02:18:17;;;;;;;2.77;0.80;;;;;;;17.28;52.79;99519.63;5110251;28;20528;-60
2023/03/11 02:20:54;;;;;;;1.80;0.80;;;;;;;17.26;52.31;99504.09;5109340;28;20173;-60
2023/03/11 02:23:20;;;;;;;1.50;0.80;;;;;;;17.29;52.75;99509.84;5108199;28;20433;-60
2023/03/11 02:25:53;;;;;;;1.90;0.70;;;;;;;17.29;52.83;99501.28;5085259;28;20469;-60
2023/03/11 02:28:19;;;;;;;1.43;0.70;;;;;;;17.26;52.84;99504.91;5092672;28;20418;-60
2023/03/11 02:30:44;;;;;;;1.57;0.70;;;;;;;17.26;52.68;99487.78;5108057;28;20431;-60
2023/03/11 02:33:09;;;;;;;1.70;0.70;;;;;;;17.29;52.65;99489.88;5111011;28;20158;-60
2023/03/11 02:35:35;;;;;;;1.57;0.90;;;;;;;17.26;52.91;99484.94;5112325;27;20248;-61
2023/03/11 02:38:01;;;;;;;2.00;0.90;;;;;;;17.25;52.98;99511.81;5109901;28;20264;-61
2023/03/11 02:40:28;;;;;;;2.10;0.70;;;;;;;17.27;52.72;99520.84;5107872;28;20186;-61
2023/03/11 02:42:55;;;;;;;1.30;0.60;;;;;;;17.29;52.55;99526.13;5109950;28;20182;-60
2023/03/11 02:45:21;;;;;;;1.30;0.53;;;;;;;17.26;52.84;99530.59;5109359;28;20423;-61
2023/03/11 02:47:47;;;;;;;1.60;0.60;;;;;;;17.26;52.50;99533.44;5109412;28;20458;-61
2023/03/11 02:50:13;;;;;;;3.23;0.80;;;;;;;17.23;52.82;99519.97;5108221;28;20436;-60
2023/03/11 02:52:39;;;;;;;1.60;0.70;;;;;;;17.21;52.75;99507.31;5109142;28;20269;-60
2023/03/11 02:55:05;;;;;;;1.50;0.70;;;;;;;17.18;53.08;99514.63;5101203;28;20433;-60
2023/03/11 02:57:30;;;;;;;1.70;0.77;;;;;;;17.24;52.60;99510.19;5102493;28;20178;-60
2023/03/11 02:59:56;;;;;;;1.87;0.90;;;;;;;17.27;52.78;99503.72;5110470;28;20396;-60
2023/03/11 03:02:21;;;;;;;1.30;0.60;;;;;;;17.27;52.45;99486.59;5110808;28;20515;-61
2023/03/11 03:04:47;;;;;;;1.60;0.80;;;;;;;17.31;52.57;99487.44;5109873;28;20574;-61
2023/03/11 03:07:12;;;;;;;1.80;0.80;;;;;;;17.28;52.78;99487.41;5110498;28;20687;-61
2023/03/11 03:09:37;;;;;;;1.57;0.80;;;;;;;17.26;52.71;99478.44;5109855;28;20173;-61
2023/03/11 03:12:03;;;;;;;2.37;0.90;;;;;;;17.27;52.47;99485.78;5110658;28;20166;-60
2023/03/11 03:14:29;;;;;;;1.40;0.70;;;;;;;17.22;52.68;99486.97;5109979;28;20257;-60
2023/03/11 03:16:54;;;;;;;1.50;0.70;;;;;;;17.25;52.58;99482.50;5111222;28;20185;-61
2023/03/11 03:19:20;;;;;;;1.53;0.63;;;;;;;17.24;52.71;99484.53;5112080;28;20173;-60
2023/03/11 03:21:45;;;;;;;1.50;0.80;;;;;;;17.26;52.72;99489.84;5110332;28;20554;-60
2023/03/11 03:24:10;;;;;;;1.53;0.70;;;;;;;17.25;52.85;99493.91;5110701;28;20177;-60
2023/03/11 03:26:36;;;;;;;1.50;0.70;;;;;;;17.23;52.71;99502.84;5100897;28;20193;-61
2023/03/11 03:29:02;;;;;;;1.40;0.60;;;;;;;17.18;53.48;99497.50;5110409;28;20185;-60
2023/03/11 03:31:28;;;;;;;1.60;0.80;;;;;;;17.21;52.97;99504.47;5092476;28;20187;-61
2023/03/11 03:33:53;;;;;;;1.60;0.80;;;;;;;17.25;52.64;99519.59;5109997;28;20440;-61
2023/03/11 03:36:19;;;;;;;1.70;0.70;;;;;;;17.26;52.54;99527.72;5108047;28;20189;-61
2023/03/11 03:38:44;;;;;;;1.50;0.70;;;;;;;17.23;52.70;99522.81;5110004;28;20218;-61
2023/03/11 03:41:14;;;;;;;2.23;0.90;;;;;;;17.21;53.30;99533.78;5109556;28;20171;-61
2023/03/11 03:43:40;;;;;;;1.60;0.70;;;;;;;17.23;52.68;99536.25;5107695;28;20177;-61
2023/03/11 03:46:06;;;;;;;1.80;0.73;;;;;;;17.23;52.77;99541.97;5097057;28;20459;-60
2023/03/11 03:48:31;;;;;;;1.97;0.67;;;;;;;17.21;52.66;99542.34;5100843;28;20695;-60
2023/03/11 03:51:01;;;;;;;2.33;0.83;;;;;;;17.23;52.93;99544.81;5109828;28;20892;-61
2023/03/11 03:53:27;;;;;;;1.40;0.70;;;;;;;17.19;53.07;99536.22;5105529;28;20217;-61
2023/03/11 03:55:53;;;;;;;1.70;0.80;;;;;;;17.20;52.86;99539.91;5103871;28;20424;-61
2023/03/11 03:58:18;;;;;;;1.70;0.80;;;;;;;17.21;52.47;99545.19;5108868;28;20678;-61
2023/03/11 04:00:44;;;;;;;1.50;0.70;;;;;;;17.21;52.85;99544.41;5108159;28;20544;-60
2023/03/11 04:03:09;;;;;;;1.60;0.80;;;;;;;17.20;52.80;99537.84;5109017;28;20182;-61
2023/03/11 04:05:35;;;;;;;1.50;0.60;;;;;;;17.18;52.81;99533.75;5098657;28;20686;-60
2023/03/11 04:08:01;;;;;;;1.30;0.60;;;;;;;17.15;52.74;99543.91;5109118;28;20197;-60
2023/03/11 04:10:26;;;;;;;2.63;1.00;;;;;;;17.18;52.66;99533.75;5111767;28;20980;-61
2023/03/11 04:12:52;;;;;;;2.43;0.80;;;;;;;17.25;52.83;99533.84;5108788;28;20186;-61
2023/03/11 04:15:17;;;;;;;1.60;0.63;;;;;;;17.24;52.56;99538.72;5109585;28;20166;-60
2023/03/11 04:17:43;;;;;;;2.37;0.87;;;;;;;17.23;52.71;99533.41;5108769;28;20178;-60
2023/03/11 04:20:09;;;;;;;1.73;0.70;;;;;;;17.26;52.92;99533.44;5109423;28;20177;-61
2023/03/11 04:22:34;;;;;;;2.23;0.90;;;;;;;17.24;52.70;99527.31;5107823;28;20189;-60
2023/03/11 04:25:00;;;;;;;1.40;0.60;;;;;;;17.24;52.38;99532.19;5109266;28;20420;-61
2023/03/11 04:27:25;;;;;;;1.87;0.80;;;;;;;17.20;52.78;99528.50;5109527;28;20186;-61
2023/03/11 04:29:51;;;;;;;1.60;0.70;;;;;;;17.20;52.75;99531.34;5108458;28;20185;-60
2023/03/11 04:32:16;;;;;;;1.83;0.70;;;;;;;17.20;53.19;99537.06;5105235;28;20182;-60
2023/03/11 04:34:42;;;;;;;1.70;0.80;;;;;;;17.20;52.71;99542.75;5093551;28;20182;-60
2023/03/11 04:37:07;;;;;;;1.50;0.67;;;;;;;17.12;52.92;99544.72;5109154;28;20177;-61
2023/03/11 04:39:33;;;;;;;2.07;0.70;;;;;;;17.16;52.80;99551.25;5109386;28;20174;-60
2023/03/11 04:41:58;;;;;;;1.87;0.90;;;;;;;17.13;52.91;99560.59;5110365;28;20188;-60
2023/03/11 04:44:23;;;;;;;2.37;0.80;;;;;;;17.16;52.67;99567.56;5109089;28;20519;-60
2023/03/11 04:46:49;;;;;;;1.47;0.60;;;;;;;17.16;52.62;99559.81;5109048;28;20213;-60
2023/03/11 04:49:14;;;;;;;1.87;0.60;;;;;;;17.19;52.91;99558.19;5112696;28;20166;-60
2023/03/11 04:51:40;;;;;;;2.60;0.90;;;;;;;17.19;52.62;99559.03;5112654;28;20158;-60
2023/03/11 04:54:06;;;;;;;1.63;0.70;;;;;;;17.18;52.60;99554.53;5110676;28;20201;-60
2023/03/11 04:56:31;;;;;;;1.40;0.60;;;;;;;17.19;52.67;99559.03;5112726;28;20830;-60
2023/03/11 04:58:56;;;;;;;2.27;0.73;;;;;;;17.14;53.39;99567.94;5109950;28;20177;-59
2023/03/11 05:01:22;;;;;;;1.20;0.50;;;;;;;17.16;52.64;99559.81;5105630;28;20589;-60
2023/03/11 05:03:47;;;;;;;2.00;0.70;;;;;;;17.18;52.43;99573.69;5101583;28;20201;-60
2023/03/11 05:06:13;;;;;;;1.67;0.80;;;;;;;17.14;52.77;99562.25;5092625;28;20186;-60
2023/03/11 05:08:39;;;;;;;1.80;0.80;;;;;;;17.17;53.08;99563.50;5089795;28;20239;-61
2023/03/11 05:11:04;;;;;;;1.40;0.50;;;;;;;17.16;52.96;99559.81;5090921;28;20232;-60
2023/03/11 05:13:30;;;;;;;1.43;0.70;;;;;;;17.18;52.87;99559.41;5108952;28;20436;-59
2023/03/11 05:15:55;;;;;;;1.60;0.90;;;;;;;17.15;52.61;99552.47;5110741;28;20181;-60
2023/03/11 05:18:21;;;;;;;1.50;0.70;;;;;;;17.17;52.51;99554.94;5111912;28;20182;-61
2023/03/11 05:20:46;;;;;;;2.07;0.80;;;;;;;17.13;52.60;99554.91;5112315;27;20640;-60
2023/03/11 05:23:12;;;;;;;1.93;0.73;;;;;;;17.16;52.65;99564.72;5112261;28;20244;-61
2023/03/11 05:25:37;;;;;;;2.37;0.83;;;;;;;17.19;52.37;99559.03;5103313;28;20539;-61
2023/03/11 05:28:02;;;;;;;1.43;0.63;;;;;;;17.24;52.38;99561.53;5105421;28;20206;-60
2023/03/11 05:30:28;;;;;;;1.50;0.70;;;;;;;17.21;52.88;99562.31;5111964;28;20154;-60
2023/03/11 05:32:55;;;;;;;1.23;0.57;;;;;;;17.22;52.74;99566.81;5110576;28;20632;-60
2023/03/11 05:35:20;;;;;;;1.23;0.57;;;;;;;17.21;52.57;99573.72;5111308;28;20264;-60
2023/03/11 05:37:48;;;;;;;1.50;0.70;;;;;;;17.18;53.14;99573.69;5113809;27;20739;-60
2023/03/11 05:40:14;;;;;;;1.67;0.70;;;;;;;17.19;52.71;99581.03;5110776;28;20615;-60
2023/03/11 05:42:40;;;;;;;2.13;0.90;;;;;;;17.15;52.58;99578.13;5111036;27;20431;-60
2023/03/11 05:45:06;;;;;;;2.23;0.77;;;;;;;17.13;52.98;99571.19;5109321;28;20193;-60
2023/03/11 05:47:32;;;;;;;1.67;0.70;;;;;;;17.09;53.11;99576.84;5110307;28;20479;-60
2023/03/11 05:49:57;;;;;;;1.50;0.83;;;;;;;17.14;52.75;99576.50;5111876;28;20430;-60
2023/03/11 05:52:22;;;;;;;1.40;0.60;;;;;;;17.07;52.87;99573.56;5111612;28;20158;-60
2023/03/11 05:54:50;;;;;;;1.40;0.60;;;;;;;17.10;52.69;99566.28;5104018;28;20648;-61
2023/03/11 05:57:15;;;;;;;1.37;0.63;;;;;;;17.10;52.94;99567.06;5109329;28;20170;-60
2023/03/11 05:59:41;;;;;;;1.50;0.70;;;;;;;17.14;53.04;99567.94;5107935;28;20510;-60
2023/03/11 06:02:06;;;;;;;2.50;0.90;;;;;;;17.13;53.16;99559.78;5111571;27;20530;-61
2023/03/11 06:04:31;;;;;;;1.63;0.70;;;;;;;17.14;52.94;99565.09;5111346;28;20189;-61
2023/03/11 06:06:57;;;;;;;1.37;0.70;;;;;;;17.16;52.69;99561.84;5110312;28;20202;-60
2023/03/11 06:09:22;;;;;;;1.50;0.87;;;;;;;17.16;52.91;99562.66;5111115;28;20730;-61
2023/03/11 06:11:48;;;;;;;2.73;0.90;;;;;;;17.17;52.73;99561.47;5110732;27;20216;-60
2023/03/11 06:14:13;;;;;;;1.50;0.57;;;;;;;17.15;52.74;99571.63;5114037;27;20780;-60
2023/03/11 06:16:39;;;;;;;1.50;0.80;;;;;;;17.14;52.69;99579.34;5111052;28;20207;-61
2023/03/11 06:19:05;;;;;;;1.50;0.70;;;;;;;17.13;52.72;99577.72;5109945;28;20190;-61
2023/03/11 06:21:30;;;;;;;2.07;0.93;;;;;;;17.15;52.48;99580.97;5111274;28;20165;-61
2023/03/11 06:23:55;;;;;;;1.93;0.67;;;;;;;17.16;52.85;99594.03;5103353;28;20186;-60
2023/03/11 06:26:21;;;;;;;1.67;0.87;;;;;;;17.14;52.82;99601.34;5109255;28;20181;-60
2023/03/11 06:28:46;;;;;;;1.50;0.70;;;;;;;17.13;52.87;99597.69;5111027;28;20571;-60
2023/03/11 06:31:14;;;;;;;2.07;0.80;;;;;;;17.11;52.75;99611.47;5108711;28;20235;-60
2023/03/11 06:33:40;;;;;;;2.73;1.13;;;;;;;17.14;52.61;99605.00;5109504;28;20673;-61
2023/03/11 06:36:06;;;;;;;1.70;0.60;;;;;;;17.18;52.45;99608.75;5109909;28;20440;-60
2023/03/11 06:38:32;;;;;;;1.53;0.87;;;;;;;17.21;52.23;99598.59;5110136;28;20230;-60
2023/03/11 06:41:02;;;;;;;1.80;0.90;;;;;;;17.19;52.55;99603.84;5108847;28;20407;-61
2023/03/11 06:43:27;;;;;;;2.03;0.87;;;;;;;17.20;52.93;99623.41;5109993;28;20200;-61
2023/03/11 06:45:53;;;;;;;1.80;0.87;;;;;;;17.26;51.90;99621.06;5110359;28;20431;-61
2023/03/11 06:48:18;;;;;;;2.37;1.10;;;;;;;17.15;52.44;99625.81;5113266;27;20197;-60
2023/03/11 06:50:44;;;;;;;1.90;0.90;;;;;;;17.14;52.47;99636.38;5109870;28;20208;-60
2023/03/11 06:53:09;;;;;;;1.77;0.90;;;;;;;17.16;52.41;99650.28;5110400;28;20553;-60
2023/03/11 06:55:35;;;;;;;1.67;0.80;;;;;;;17.14;52.81;99646.97;5104491;28;20186;-60
2023/03/11 06:58:00;;;;;;;1.73;0.80;;;;;;;17.15;52.73;99635.19;5110469;28;20181;-60
2023/03/11 07:00:26;;;;;;;1.77;0.80;;;;;;;17.14;52.95;99644.94;5110559;28;20214;-60
2023/03/11 07:02:51;;;;;;;1.77;0.80;;;;;;;17.14;53.04;99641.25;5109196;28;20181;-60
2023/03/11 07:05:17;;;;;;;2.47;1.10;;;;;;;17.12;52.68;99650.22;5099767;28;20225;-61
2023/03/11 07:07:42;;;;;;;1.70;0.80;;;;;;;17.16;52.58;99656.78;5094525;28;20201;-60
2023/03/11 07:10:08;;;;;;;1.50;0.70;;;;;;;17.17;52.42;99657.59;5109225;28;20290;-60
2023/03/11 07:12:34;;;;;;;1.93;1.10;;;;;;;17.16;52.70;99656.78;5110240;28;20168;-61
2023/03/11 07:14:59;;;;;;;1.70;0.90;;;;;;;17.18;52.65;99659.25;5107780;28;20931;-60
2023/03/11 07:17:25;;;;;;;1.60;0.70;;;;;;;17.16;52.43;99662.47;5089967;28;20209;-60
2023/03/11 07:19:50;;;;;;;1.77;0.80;;;;;;;17.13;52.82;99657.56;5093756;28;20193;-60
2023/03/11 07:22:16;;;;;;;1.80;0.80;;;;;;;17.16;52.64;99667.38;5110286;28;20174;-61
2023/03/11 07:24:44;;;;;;;1.73;0.87;;;;;;;17.16;52.29;99671.03;5108258;28;20173;-61
2023/03/11 07:27:10;;;;;;;2.63;0.80;;;;;;;17.16;52.02;99679.59;5107436;28;20572;-61
2023/03/11 07:29:35;;;;;;;2.00;0.93;;;;;;;17.16;52.60;99673.09;5108311;28;20403;-61
2023/03/11 07:32:01;;;;;;;1.40;0.70;;;;;;;17.14;52.46;99675.47;5098319;28;20192;-60
2023/03/11 07:34:26;;;;;;;1.57;0.90;;;;;;;17.17;52.49;99678.41;5107631;28;20174;-61
2023/03/11 07:36:51;;;;;;;2.13;0.90;;;;;;;17.14;52.63;99676.31;5107293;28;20182;-61
2023/03/11 07:39:17;;;;;;;1.83;0.77;;;;;;;17.16;52.70;99688.16;5107505;28;20189;-60
2023/03/11 07:41:42;;;;;;;1.90;0.80;;;;;;;17.14;53.06;99689.75;5108555;28;20628;-60
2023/03/11 07:44:10;;;;;;;1.60;0.80;;;;;;;17.14;52.48;99701.16;5107771;28;20733;-60
2023/03/11 07:46:36;;;;;;;1.50;0.80;;;;;;;17.14;52.30;99699.13;5093044;28;20197;-60
2023/03/11 07:49:02;;;;;;;1.60;0.80;;;;;;;17.22;52.26;99700.88;5108766;28;20412;-60
2023/03/11 07:51:29;;;;;;;1.33;0.73;;;;;;;17.22;52.04;99700.88;5106784;28;20181;-61
2023/03/11 07:53:55;;;;;;;1.60;0.97;;;;;;;17.20;52.14;99706.13;5108974;28;20419;-60
2023/03/11 07:56:22;;;;;;;1.50;0.70;;;;;;;17.21;52.38;99701.28;5101040;28;20484;-61
2023/03/11 07:58:48;;;;;;;1.60;0.70;;;;;;;17.21;52.24;99710.63;5091702;28;21200;-61
2023/03/11 08:01:17;;;;;;;2.07;1.10;;;;;;;17.16;52.73;99719.53;5099888;28;20466;-60
2023/03/11 08:03:43;;;;;;;1.93;0.90;;;;;;;17.15;52.61;99725.63;5108719;28;20201;-61
2023/03/11 08:06:19;;;;;;;1.50;0.80;;;;;;;17.16;52.60;99716.66;5099050;28;21003;-60
2023/03/11 08:08:45;;;;;;;1.30;0.60;;;;;;;17.13;52.40;99726.03;5104247;28;21250;-61
2023/03/11 08:11:12;;;;;;;1.87;0.90;;;;;;;17.14;52.64;99716.25;5108882;28;20463;-60
2023/03/11 08:13:38;;;;;;;1.63;0.97;;;;;;;17.15;52.54;99714.22;5089285;28;20560;-61
2023/03/11 08:16:04;;;;;;;2.43;0.90;;;;;;;17.16;52.25;99705.25;5108608;28;20415;-60
2023/03/11 08:18:31;;;;;;;1.70;0.90;;;;;;;17.17;52.11;99715.50;5089821;28;20907;-61
2023/03/11 08:20:57;;;;;;;1.63;0.70;;;;;;;17.17;52.46;99715.50;5088903;28;20415;-60
2023/03/11 08:23:22;;;;;;;2.03;1.17;;;;;;;17.16;52.32;99708.13;5101326;28;20173;-61
2023/03/11 08:25:47;;;;;;;2.20;0.73;;;;;;;17.17;52.64;99709.78;5113181;28;20508;-60
2023/03/11 08:28:13;;;;;;;1.90;1.03;;;;;;;17.17;52.34;99709.78;5113336;28;20709;-60
2023/03/11 08:30:38;;;;;;;1.80;0.80;;;;;;;17.16;52.30;99708.13;5113174;28;20161;-60
2023/03/11 08:33:04;;;;;;;1.90;0.80;;;;;;;17.16;52.70;99713.00;5112043;28;20189;-60
2023/03/11 08:35:30;;;;;;;1.83;0.90;;;;;;;17.18;52.28;99711.44;5094249;28;20694;-60
2023/03/11 08:37:55;;;;;;;1.33;0.70;;;;;;;17.17;52.42;99709.78;5113258;28;20162;-60
2023/03/11 08:40:21;;;;;;;1.73;0.93;;;;;;;17.16;52.32;99716.66;5115242;27;20902;-61
2023/03/11 08:42:47;;;;;;;1.80;0.80;;;;;;;17.18;52.09;99728.53;5112937;28;20181;-61
2023/03/11 08:45:12;;;;;;;1.93;1.10;;;;;;;17.17;52.39;99726.91;5112566;28;20661;-60
2023/03/11 08:47:38;;;;;;;1.80;1.03;;;;;;;17.17;52.79;99726.91;5111910;28;20296;-60
2023/03/11 08:50:05;;;;;;;1.77;0.83;;;;;;;17.12;52.41;99730.09;5110858;28;20178;-60
2023/03/11 08:52:30;;;;;;;2.13;0.93;;;;;;;17.13;52.29;99737.44;5091076;28;20213;-61
2023/03/11 08:54:56;;;;;;;1.87;0.90;;;;;;;17.15;52.56;99735.00;5111896;28;20891;-60
2023/03/11 08:57:21;;;;;;;1.30;0.60;;;;;;;17.19;52.25;99744.44;5092080;28;20174;-60
2023/03/11 08:59:46;;;;;;;1.60;0.80;;;;;;;17.23;52.40;99745.31;5111558;28;20178;-61
2023/03/11 09:02:12;;;;;;;1.57;0.70;;;;;;;17.23;52.20;99739.63;5111602;28;20235;-61
2023/03/11 09:04:37;;;;;;;1.70;0.70;;;;;;;17.24;52.00;99748.97;5094019;28;20194;-60
2023/03/11 09:07:03;;;;;;;1.90;0.87;;;;;;;17.23;52.25;99750.19;5093424;28;20793;-60
2023/03/11 09:09:28;;;;;;;2.17;0.90;;;;;;;17.20;52.02;99751.78;5111452;28;20169;-60
2023/03/11 09:11:54;;;;;;;2.07;0.90;;;;;;;17.20;52.10;99745.28;5111746;28;20182;-60
2023/03/11 09:14:19;;;;;;;1.80;0.70;;;;;;;17.20;51.92;99753.81;5111923;28;20215;-61
2023/03/11 09:16:44;;;;;;;1.60;0.87;;;;;;;17.19;52.49;99746.44;5110559;28;20227;-60
2023/03/11 09:19:10;;;;;;;1.47;0.80;;;;;;;17.19;52.08;99746.44;5111491;28;20659;-61
2023/03/11 09:21:36;;;;;;;1.90;0.83;;;;;;;17.20;52.24;99745.28;5111660;27;20882;-60
2023/03/11 09:24:03;;;;;;;1.70;0.60;;;;;;;17.17;52.46;99751.72;5110455;28;20189;-61
2023/03/11 09:26:29;;;;;;;1.60;0.80;;;;;;;17.16;52.37;99753.75;5111283;28;20216;-60
2023/03/11 09:28:54;;;;;;;2.10;1.00;;;;;;;17.19;52.04;99750.13;5112031;28;20436;-61
2023/03/11 09:31:20;;;;;;;1.80;0.80;;;;;;;17.21;52.57;99749.75;5112240;28;20396;-61
2023/03/11 09:33:45;;;;;;;3.00;1.00;;;;;;;17.21;52.24;99753.41;5109673;28;20184;-61
2023/03/11 09:36:12;;;;;;;2.03;0.93;;;;;;;17.19;52.35;99758.69;5111573;28;20165;-61
2023/03/11 09:38:37;;;;;;;1.50;0.90;;;;;;;17.20;52.51;99759.53;5110284;28;20185;-61
2023/03/11 09:41:22;;;;;;;1.70;1.00;;;;;;;17.20;52.24;99756.69;5111953;28;20476;-61
2023/03/11 09:44:12;;;;;;;1.60;0.70;;;;;;;17.18;52.25;99757.06;5110411;28;20272;-60
2023/03/11 09:46:53;;;;;;;1.40;0.70;;;;;;;17.16;52.22;99758.66;5110653;28;20581;-60
2023/03/11 09:49:30;;;;;;;1.53;0.93;;;;;;;17.17;52.06;99758.28;5109912;28;20503;-61
2023/03/11 09:52:05;;;;;;;1.83;0.60;;;;;;;17.17;52.01;99754.59;5109575;28;20779;-60
2023/03/11 09:54:35;;;;;;;1.73;0.70;;;;;;;17.16;52.34;99758.66;5111926;27;20921;-61
2023/03/11 09:57:00;;;;;;;2.00;1.00;;;;;;;17.12;52.36;99763.47;5091589;28;20414;-60
2023/03/11 09:59:29;;;;;;;2.37;0.80;;;;;;;17.15;52.27;99769.22;5090926;28;20444;-60
2023/03/11 10:01:54;;;;;;;2.00;0.97;;;;;;;17.15;52.34;99760.66;5110279;28;20219;-60
2023/03/11 10:04:37;;;;;;;2.27;0.80;;;;;;;17.15;52.41;99759.88;5088408;28;20440;-61
2023/03/11 10:07:08;;;;;;;1.47;0.77;;;;;;;17.16;52.29;99756.59;5088129;28;20289;-61
2023/03/11 10:09:46;;;;;;;1.93;0.70;;;;;;;17.14;52.42;99756.19;5091952;28;20439;-61
2023/03/11 10:12:45;;;;;;;1.77;0.90;;;;;;;17.16;52.01;99758.66;5075278;28;20467;-60
2023/03/11 10:15:18;;;;;;;1.73;0.80;;;;;;;17.20;51.97;99754.63;5112880;27;20457;-61
2023/03/11 10:18:04;;;;;;;1.70;0.90;;;;;;;17.26;51.97;99746.56;5109258;28;20431;-61
2023/03/11 10:20:48;;;;;;;1.50;0.77;;;;;;;17.27;52.01;99753.91;5092806;28;20925;-60
2023/03/11 10:23:31;;;;;;;1.67;0.90;;;;;;;17.16;52.04;99748.03;5110944;28;20498;-60
2023/03/11 10:26:09;;;;;;;1.50;0.80;;;;;;;17.23;52.42;99739.63;5107084;28;20503;-60
2023/03/11 10:28:55;;;;;;;1.53;0.70;;;;;;;17.24;52.11;99737.56;5092687;28;20418;-61
2023/03/11 10:31:21;;;;;;;2.60;0.90;;;;;;;17.21;52.08;99744.88;5092704;28;21271;-60
2023/03/11 10:33:51;;;;;;;1.77;0.90;;;;;;;17.21;52.14;99744.88;5094860;27;20887;-60
2023/03/11 10:36:23;;;;;;;1.90;0.80;;;;;;;17.21;51.96;99744.06;5091791;28;20439;-60
2023/03/11 10:38:49;;;;;;;1.50;0.80;;;;;;;17.22;52.21;99743.69;5093018;28;20410;-61
2023/03/11 10:41:38;;;;;;;1.50;0.60;;;;;;;17.20;52.08;99740.38;5074982;28;20436;-61
2023/03/11 10:44:15;;;;;;;1.67;0.80;;;;;;;17.21;51.98;99749.75;5093505;28;20406;-61
2023/03/11 10:46:58;;;;;;;2.00;0.93;;;;;;;17.19;52.33;99747.28;5090954;28;20511;-61
2023/03/11 10:49:23;;;;;;;2.40;0.90;;;;;;;17.20;51.91;99754.63;5110229;28;20461;-61
2023/03/11 10:51:50;;;;;;;2.90;0.90;;;;;;;17.22;51.98;99751.41;5111123;28;20420;-60
2023/03/11 10:54:25;;;;;;;2.50;1.10;;;;;;;17.20;52.15;99748.13;5109743;28;20257;-61
2023/03/11 10:56:54;;;;;;;1.40;0.60;;;;;;;17.23;51.97;99750.19;5109246;28;20898;-60
2023/03/11 10:59:58;;;;;;;1.77;0.80;;;;;;;17.24;52.25;99754.69;5109500;28;20412;-61
2023/03/11 11:02:26;;;;;;;1.50;0.80;;;;;;;17.25;51.90;99757.16;5072178;28;20466;-61
2023/03/11 11:05:06;;;;;;;1.73;0.70;;;;;;;17.25;51.88;99750.66;5096193;28;21009;-60
2023/03/11 11:07:34;;;;;;;1.57;0.80;;;;;;;17.25;52.50;99748.59;5109350;28;20478;-60
2023/03/11 11:10:19;;;;;;;2.23;1.00;;;;;;;17.25;51.87;99748.59;5107985;28;20479;-62
2023/03/11 11:12:59;;;;;;;1.80;0.90;;;;;;;17.24;52.01;99744.09;5109688;28;20910;-60
2023/03/11 11:15:26;;;;;;;2.00;0.90;;;;;;;17.23;51.99;99742.47;5109248;28;20520;-61
2023/03/11 11:17:54;;;;;;;2.30;0.83;;;;;;;17.26;52.38;99733.13;5108704;28;20425;-60
2023/03/11 11:20:19;;;;;;;1.80;0.80;;;;;;;17.25;52.27;99731.47;5091978;28;20415;-60
2023/03/11 11:22:59;;;;;;;1.80;0.80;;;;;;;17.27;52.06;99733.94;5109396;28;20941;-60
2023/03/11 11:25:38;;;;;;;1.80;1.10;;;;;;;17.30;51.74;99736.84;5093377;28;20617;-60
2023/03/11 11:28:16;;;;;;;1.30;0.57;;;;;;;17.29;52.17;99735.22;5075246;28;21096;-62
2023/03/11 11:31:23;;;;;;;1.60;0.80;;;;;;;17.32;51.74;99733.63;5109553;28;20484;-59
2023/03/11 11:33:52;;;;;;;1.80;0.73;;;;;;;17.33;52.79;99735.25;5096784;28;20458;-60
2023/03/11 11:36:28;;;;;;;1.93;0.80;;;;;;;17.34;51.64;99734.88;5109463;28;20875;-60